Terminal Aerodrome Forecast
Issued by NWS Bismarck, ND

Home | Current Version | Previous Version | Text Only | Print | Product List | Glossary Off
Versions: 1 2 3 4 5 6 7 8 9 10 11 12 13 14 15 16 17

000
FTUS43 KBIS 222327
TAFISN
TAF
KISN 222327Z 2300/2324 31029G40KT P6SM VCSH SCT035 OVC070
     FM230200 31025G37KT P6SM VCSH OVC030
     FM230600 32017G25KT P6SM SCT025 OVC030
     FM231300 31022G33KT P6SM FEW045=

USA.gov is the U.S. government's official web portal to all federal, state and local government web resources and services.